Duffys Tavern Airport


Codes: DDT/
Name: Duffys Tavern Airport
City: Slana
Country: United States
Elevation: 2420 ft.

Photos at Duffys Tavern Airport


   Photos courtesy of SpottingLog. You can add your own sightings and photos by signing up for a free trial today.



No photos found.

Weather at Duffys Tavern Airport


Time (UTC)DescriptionTempratureWindCloud coverageVisibilityPressureHumidity
17-Jun-2024 06:00Broken Clouds20°C4 mph, W69%10000m1014hPa40%
17-Jun-2024 09:00Broken Clouds15°C2 mph, SE74%10000m1014hPa56%
17-Jun-2024 12:00Light Rain11°C2 mph, NE75%10000m1015hPa80%
17-Jun-2024 15:00Light Rain14°C0 mph, NE72%10000m1015hPa72%
17-Jun-2024 18:00Light Rain18°C2 mph, SW61%10000m1013hPa51%
17-Jun-2024 21:00Light Rain21°C4 mph, W14%10000m1012hPa39%
18-Jun-2024 00:00Light Rain21°C4 mph, SW37%10000m1011hPa36%
18-Jun-2024 03:00Light Rain15°C2 mph, W96%9987m1013hPa66%
18-Jun-2024 06:00Light Rain14°C2 mph, NW90%10000m1012hPa73%
18-Jun-2024 09:00Light Rain11°C0 mph, SE89%10000m1013hPa91%
18-Jun-2024 12:00Broken Clouds10°C2 mph, N61%10000m1013hPa89%
18-Jun-2024 15:00Broken Clouds13°C2 mph, SW62%10000m1013hPa76%
18-Jun-2024 18:00Scattered Clouds16°C4 mph, SW48%10000m1012hPa59%
18-Jun-2024 21:00Light Rain19°C7 mph, W63%10000m1011hPa43%
19-Jun-2024 00:00Light Rain21°C7 mph, W65%10000m1010hPa35%
19-Jun-2024 03:00Overcast Clouds20°C4 mph, SW90%10000m1009hPa38%
19-Jun-2024 06:00Overcast Clouds16°C7 mph, W92%10000m1010hPa45%
19-Jun-2024 09:00Broken Clouds11°C2 mph, W68%10000m1013hPa61%
19-Jun-2024 12:00Broken Clouds11°C2 mph, W78%10000m1014hPa55%
19-Jun-2024 15:00Overcast Clouds13°C2 mph, W100%10000m1014hPa55%
19-Jun-2024 18:00Broken Clouds16°C4 mph, W70%10000m1014hPa47%
19-Jun-2024 21:00Few Clouds18°C4 mph, W17%10000m1012hPa40%
20-Jun-2024 00:00Few Clouds20°C7 mph, W23%10000m1011hPa32%
20-Jun-2024 03:00Broken Clouds19°C9 mph, W77%10000m1011hPa29%
20-Jun-2024 06:00Scattered Clouds15°C4 mph, W47%10000m1012hPa45%
20-Jun-2024 09:00Few Clouds10°C2 mph, NW22%10000m1014hPa56%
20-Jun-2024 12:00Scattered Clouds8°C2 mph, SW46%10000m1015hPa64%
20-Jun-2024 15:00Overcast Clouds11°C2 mph, SW94%10000m1014hPa57%
20-Jun-2024 18:00Overcast Clouds14°C4 mph, SW97%10000m1013hPa49%
20-Jun-2024 21:00Overcast Clouds16°C4 mph, W100%10000m1012hPa43%
21-Jun-2024 00:00Overcast Clouds17°C9 mph, W100%10000m1011hPa41%
21-Jun-2024 03:00Light Rain15°C9 mph, SW100%10000m1011hPa48%
21-Jun-2024 06:00Overcast Clouds13°C4 mph, SW100%10000m1011hPa57%
21-Jun-2024 09:00Overcast Clouds9°C4 mph, W99%10000m1012hPa68%
21-Jun-2024 12:00Broken Clouds7°C2 mph, SW74%10000m1013hPa75%
21-Jun-2024 15:00Few Clouds10°C2 mph, SW12%10000m1011hPa61%
21-Jun-2024 18:00Clear Sky14°C4 mph, W10%10000m1010hPa47%
21-Jun-2024 21:00Few Clouds17°C4 mph, W14%10000m1008hPa39%
22-Jun-2024 00:00Scattered Clouds18°C4 mph, SW32%10000m1007hPa35%
22-Jun-2024 03:00Overcast Clouds17°C4 mph, NW92%10000m1007hPa41%